Decoded Metar for KVTI (VINTON in IA, USA) (IATA:VTI) | Meteo·Mobile Aviation Weather
aviador You're here:

KVTI Decoded Metar

VINTON in IA, USA
Report Time2019-02-16 07:15:00
UTC Time2019-02-16 07:17:31
Flight Rules vfr VFR
Wind310° at 04 kt
W.Decomp.*RWY 34: 3.4 kt HW 2.1 kt LCW
RWY 27: 3.1 kt HW 2.5 kt RCW
W.Rank310° ranks 8
Current wind is below 310° avg. (8.7)
Visibility9999 m
Phenomena:N/A
Clouds:N/A
Expected CloudBase > 1,200 ft AGL from Temp-Dew spread
CeilingNone
Temp-17°C (ISA -30)
Dew Point-20°C (78% RH)
AAT-22.0°C
QNH1021 hPa
Density Alt-3,268 ft
Elevation837 ft
Report Wrong Elevation
Raw Report
KVTI 160715Z AUTO 31004KT 10SM CLR M17/M20 A3016 RMK AO2
T11731200=

Extra information for KVTI:More info

Metar Taf Metar & Taf Last 4 Metars F.Rules Stats Wind Profile Meteogram Temp Stats Airport Information Weather charts Add Link Nearby VenuesMetar ALERT Operation Metar Decoded Social comments

AIRNAV info for KVTI